Time;durP1;ratioP1;P1;durP2;ratioP2;P2;SDS_P1;SDS_P2;PMS_P1;PMS_P2;Temp;Humidity;BMP_temperature;BMP_pressure;BME280_temperature;BME280_humidity;BME280_pressure;Samples;Min_cycle;Max_cycle;Signal;HPM_P1;HPM_P2
2022/10/01 00:00:01;;;;;;;;;;;26.40;99.90;;;;;;4207739;28;19975;-70
2022/10/01 00:02:12;;;;;;;;;;;26.40;99.90;;;;;;4210191;28;19928;-70
2022/10/01 00:04:20;;;;;;;;;;;26.50;99.90;;;;;;4192632;28;19959;-68
2022/10/01 00:06:27;;;;;;;;;;;26.50;99.90;;;;;;4209538;28;20464;-68
2022/10/01 00:08:32;;;;;;;;;;;26.50;99.90;;;;;;4209880;28;20319;-68
2022/10/01 00:10:40;;;;;;;;;;;26.40;99.90;;;;;;4192431;28;19929;-69
2022/10/01 00:12:46;;;;;;;;;;;26.50;99.90;;;;;;4209422;28;19936;-71
2022/10/01 00:14:50;;;;;;;;;;;26.50;99.90;;;;;;4208985;28;19932;-70
2022/10/01 00:16:55;;;;;;;;;;;26.50;99.90;;;;;;4208548;28;19928;-69
2022/10/01 00:19:10;;;;;;;;;;;26.50;99.90;;;;;;4208473;28;19959;-70
2022/10/01 00:21:16;;;;;;;;;;;26.50;99.90;;;;;;4208888;28;19932;-71
2022/10/01 00:23:25;;;;;;;;;;;26.60;99.90;;;;;;4192371;28;19939;-70
2022/10/01 00:25:30;;;;;;;;;;;26.50;99.90;;;;;;4209175;28;19928;-68
2022/10/01 00:27:34;;;;;;;;;;;26.60;99.90;;;;;;4209821;28;20077;-69
2022/10/01 00:29:40;;;;;;;;;;;26.60;99.90;;;;;;4212749;28;19928;-69
2022/10/01 00:31:48;;;;;;;;;;;26.60;99.90;;;;;;4208207;28;19944;-68
2022/10/01 00:33:54;;;;;;;;;;;26.60;99.90;;;;;;4210175;28;20952;-69
2022/10/01 00:35:58;;;;;;;;;;;26.70;99.90;;;;;;4209061;28;19932;-69
2022/10/01 00:38:02;;;;;;;;;;;26.60;99.90;;;;;;4209264;28;19935;-68
2022/10/01 00:40:09;;;;;;;;;;;26.70;99.90;;;;;;4192204;28;20023;-68
2022/10/01 00:42:18;;;;;;;;;;;26.70;99.90;;;;;;4206418;28;20401;-69
2022/10/01 00:44:31;;;;;;;;;;;26.80;99.90;;;;;;4208233;28;19939;-70
2022/10/01 00:46:41;;;;;;;;;;;26.80;99.90;;;;;;4208116;28;19935;-70
2022/10/01 00:48:57;;;;;;;;;;;26.80;99.90;;;;;;4176686;28;19932;-70
2022/10/01 00:51:01;;;;;;;;;;;26.80;99.90;;;;;;4215045;28;20659;-69
2022/10/01 00:53:07;;;;;;;;;;;26.80;99.90;;;;;;4191832;28;19929;-69
2022/10/01 00:55:15;;;;;;;;;;;26.80;99.90;;;;;;4209243;28;20406;-69
2022/10/01 00:57:24;;;;;;;;;;;26.90;99.90;;;;;;4192185;28;19935;-71
2022/10/01 00:59:32;;;;;;;;;;;26.90;99.90;;;;;;4192592;28;20034;-69
2022/10/01 01:01:44;;;;;;;;;;;26.90;99.90;;;;;;4177060;28;20384;-70
2022/10/01 01:03:49;;;;;;;;;;;26.90;99.90;;;;;;4208826;28;19932;-69
2022/10/01 01:05:54;;;;;;;;;;;27.00;99.90;;;;;;4208239;28;19957;-67
2022/10/01 01:08:00;;;;;;;;;;;27.00;99.90;;;;;;4199951;28;19935;-69
2022/10/01 01:10:06;;;;;;;;;;;27.00;99.90;;;;;;4204763;28;19973;-69
2022/10/01 01:12:14;;;;;;;;;;;27.10;99.90;;;;;;4191357;28;20390;-69
2022/10/01 01:14:29;;;;;;;;;;;27.10;99.90;;;;;;4208854;28;19928;-68
2022/10/01 01:16:40;;;;;;;;;;;27.10;99.90;;;;;;4197941;28;19935;-71
2022/10/01 01:18:54;;;;;;;;;;;27.20;99.90;;;;;;4205342;28;19960;-69
2022/10/01 01:21:07;;;;;;;;;;;27.30;99.90;;;;;;4211300;28;20379;-72
2022/10/01 01:23:36;;;;;;;;;;;27.20;99.90;;;;;;4217748;28;20014;-69
2022/10/01 01:25:54;;;;;;;;;;;27.30;99.90;;;;;;4186205;28;20397;-69
2022/10/01 01:28:07;;;;;;;;;;;27.30;99.90;;;;;;4207193;28;20662;-68
2022/10/01 01:30:13;;;;;;;;;;;27.20;99.90;;;;;;4188803;28;20430;-69
2022/10/01 01:32:21;;;;;;;;;;;27.20;99.90;;;;;;4189472;28;19935;-70
2022/10/01 01:34:26;;;;;;;;;;;27.20;99.90;;;;;;4190193;28;19928;-68
2022/10/01 01:36:31;;;;;;;;;;;27.30;99.90;;;;;;4173453;28;20010;-70
2022/10/01 01:39:02;;;;;;;;;;;27.30;99.90;;;;;;4173063;28;19936;-68
2022/10/01 01:41:12;;;;;;;;;;;27.40;99.90;;;;;;4155711;28;19937;-70
2022/10/01 01:43:23;;;;;;;;;;;27.30;99.90;;;;;;4171926;28;19943;-69
2022/10/01 01:45:34;;;;;;;;;;;27.40;99.90;;;;;;4171803;28;19947;-68
2022/10/01 01:47:40;;;;;;;;;;;27.30;99.90;;;;;;4188039;28;19928;-70
2022/10/01 01:49:44;;;;;;;;;;;27.40;99.90;;;;;;4176481;28;19928;-67
2022/10/01 01:51:49;;;;;;;;;;;27.40;99.90;;;;;;4193116;28;20027;-69
2022/10/01 01:53:53;;;;;;;;;;;27.40;99.90;;;;;;4191097;28;20393;-69
2022/10/01 01:55:59;;;;;;;;;;;27.40;99.90;;;;;;4192435;28;20027;-69
2022/10/01 01:58:04;;;;;;;;;;;27.40;99.90;;;;;;4192677;28;20470;-67
2022/10/01 02:00:10;;;;;;;;;;;27.40;99.90;;;;;;4189618;28;19970;-70
2022/10/01 02:02:22;;;;;;;;;;;27.50;99.90;;;;;;4193536;28;19928;-68
2022/10/01 02:04:29;;;;;;;;;;;27.50;99.90;;;;;;4176467;28;20299;-67
2022/10/01 02:06:39;;;;;;;;;;;27.60;99.90;;;;;;4183783;28;19989;-69
2022/10/01 02:08:48;;;;;;;;;;;27.70;99.90;;;;;;4174934;28;20299;-68
2022/10/01 02:11:07;;;;;;;;;;;27.80;99.90;;;;;;4211047;28;19985;-69
2022/10/01 02:13:24;;;;;;;;;;;27.90;99.90;;;;;;4210838;28;19985;-68
2022/10/01 02:15:35;;;;;;;;;;;28.00;99.90;;;;;;4194436;28;20393;-69
2022/10/01 02:17:49;;;;;;;;;;;28.10;99.90;;;;;;4212744;28;19993;-68
2022/10/01 02:20:14;;;;;;;;;;;28.20;99.90;;;;;;4178079;28;20622;-68
2022/10/01 02:22:19;;;;;;;;;;;28.20;99.90;;;;;;4212254;28;20560;-68
2022/10/01 02:24:33;;;;;;;;;;;28.20;99.90;;;;;;4211719;28;19935;-68
2022/10/01 02:26:38;;;;;;;;;;;28.30;99.90;;;;;;4211840;28;19928;-69
2022/10/01 02:28:44;;;;;;;;;;;28.30;99.90;;;;;;4209224;28;19928;-69
2022/10/01 02:30:50;;;;;;;;;;;28.30;99.90;;;;;;4193990;28;19932;-69
2022/10/01 02:32:58;;;;;;;;;;;28.30;99.90;;;;;;4194241;28;20370;-69
2022/10/01 02:35:05;;;;;;;;;;;28.30;99.90;;;;;;4191573;28;19928;-70
2022/10/01 02:37:10;;;;;;;;;;;28.30;99.90;;;;;;4211206;28;19928;-70
2022/10/01 02:39:14;;;;;;;;;;;28.20;99.90;;;;;;4193051;28;19929;-70
2022/10/01 02:41:22;;;;;;;;;;;28.30;99.90;;;;;;4192752;28;19928;-69
2022/10/01 02:43:30;;;;;;;;;;;28.40;99.90;;;;;;4211356;28;19939;-70
2022/10/01 02:45:38;;;;;;;;;;;28.40;99.90;;;;;;4205590;28;19928;-70
2022/10/01 02:47:51;;;;;;;;;;;28.50;99.90;;;;;;4210941;28;20418;-68
2022/10/01 02:50:04;;;;;;;;;;;28.60;99.90;;;;;;4194163;28;20052;-70
2022/10/01 02:52:19;;;;;;;;;;;28.70;99.90;;;;;;4175768;28;19929;-70
2022/10/01 02:54:27;;;;;;;;;;;28.80;99.90;;;;;;4210943;28;19928;-69
2022/10/01 02:58:52;;;;;;;;;;;29.10;99.90;;;;;;4206306;28;19927;-69
2022/10/01 03:00:57;;;;;;;;;;;29.10;99.90;;;;;;4202132;28;20013;-70
2022/10/01 03:03:06;;;;;;;;;;;29.10;99.90;;;;;;4193519;28;20418;-69
2022/10/01 03:05:15;;;;;;;;;;;29.20;99.90;;;;;;4208176;28;19940;-70
2022/10/01 03:07:20;;;;;;;;;;;29.20;99.90;;;;;;4210951;28;20357;-68
2022/10/01 03:09:28;;;;;;;;;;;29.10;99.90;;;;;;4210632;28;19958;-69
2022/10/01 03:11:32;;;;;;;;;;;29.20;99.90;;;;;;4190486;28;19946;-69
2022/10/01 03:13:42;;;;;;;;;;;29.20;99.90;;;;;;4192824;28;19932;-69
2022/10/01 03:15:47;;;;;;;;;;;29.10;99.90;;;;;;4210600;28;19938;-69
2022/10/01 03:17:51;;;;;;;;;;;29.10;99.90;;;;;;4209744;28;19932;-70
2022/10/01 03:20:02;;;;;;;;;;;29.10;99.90;;;;;;4194135;28;19935;-68
2022/10/01 03:22:08;;;;;;;;;;;29.10;99.90;;;;;;4210715;28;20451;-71
2022/10/01 03:24:12;;;;;;;;;;;29.10;99.90;;;;;;4208263;28;20014;-70
2022/10/01 03:26:29;;;;;;;;;;;29.10;99.90;;;;;;4210890;28;19981;-71
2022/10/01 03:28:34;;;;;;;;;;;29.10;99.90;;;;;;4211095;28;19955;-72
2022/10/01 03:30:38;;;;;;;;;;;29.10;99.90;;;;;;4210494;28;20675;-72
2022/10/01 03:32:43;;;;;;;;;;;29.00;99.90;;;;;;4192557;28;20562;-69
2022/10/01 03:34:47;;;;;;;;;;;28.90;99.90;;;;;;4209892;28;20751;-68
2022/10/01 03:36:52;;;;;;;;;;;28.90;99.90;;;;;;4208541;28;20295;-69
2022/10/01 03:38:58;;;;;;;;;;;28.80;99.90;;;;;;4192559;28;20030;-70
2022/10/01 03:41:02;;;;;;;;;;;28.80;99.90;;;;;;4192992;28;19934;-69
2022/10/01 03:43:07;;;;;;;;;;;28.80;99.90;;;;;;4210439;28;19932;-71
2022/10/01 03:45:11;;;;;;;;;;;28.70;99.90;;;;;;4207829;28;19975;-70
2022/10/01 03:47:17;;;;;;;;;;;28.70;99.90;;;;;;4192176;28;19939;-69
2022/10/01 03:49:22;;;;;;;;;;;28.80;99.90;;;;;;4210457;28;20417;-69
2022/10/01 03:51:30;;;;;;;;;;;28.80;99.90;;;;;;4210181;28;19928;-69
2022/10/01 03:53:36;;;;;;;;;;;28.90;99.90;;;;;;4208120;28;19932;-69
2022/10/01 03:56:01;;;;;;;;;;;28.90;99.90;;;;;;4211374;28;19955;-69
2022/10/01 03:58:06;;;;;;;;;;;28.90;99.90;;;;;;4192514;28;20391;-69
2022/10/01 04:00:10;;;;;;;;;;;29.10;99.90;;;;;;4209758;28;20291;-69
2022/10/01 04:02:20;;;;;;;;;;;29.20;99.90;;;;;;4208597;28;20302;-68
2022/10/01 04:04:28;;;;;;;;;;;29.20;99.90;;;;;;4192790;28;19936;-70
2022/10/01 04:06:32;;;;;;;;;;;29.30;99.90;;;;;;4206998;28;19939;-69
2022/10/01 04:08:38;;;;;;;;;;;29.30;99.90;;;;;;4210198;28;19928;-70
2022/10/01 04:10:44;;;;;;;;;;;29.30;99.90;;;;;;4210027;28;19927;-68
2022/10/01 04:12:50;;;;;;;;;;;29.30;99.90;;;;;;4208964;28;19932;-70
2022/10/01 04:14:54;;;;;;;;;;;29.30;99.90;;;;;;4207150;28;19971;-70
2022/10/01 04:16:59;;;;;;;;;;;29.30;99.90;;;;;;4210081;28;19928;-69
2022/10/01 04:19:04;;;;;;;;;;;29.30;99.90;;;;;;4209528;28;19928;-69
2022/10/01 04:21:10;;;;;;;;;;;29.30;99.90;;;;;;4210052;28;19932;-69
2022/10/01 04:23:14;;;;;;;;;;;29.40;99.90;;;;;;4207466;28;19928;-70
2022/10/01 04:25:18;;;;;;;;;;;29.30;99.90;;;;;;4209900;28;19938;-69
2022/10/01 04:27:22;;;;;;;;;;;29.40;99.90;;;;;;4209261;28;20581;-69
2022/10/01 04:29:26;;;;;;;;;;;29.40;99.90;;;;;;4210216;28;19928;-68
2022/10/01 04:31:33;;;;;;;;;;;29.40;99.90;;;;;;4209846;28;20471;-69
2022/10/01 04:33:38;;;;;;;;;;;29.40;99.90;;;;;;4207625;28;20340;-69
2022/10/01 04:35:44;;;;;;;;;;;29.50;99.90;;;;;;4209620;28;20018;-69
2022/10/01 04:38:02;;;;;;;;;;;29.50;99.90;;;;;;4190559;28;19928;-69
2022/10/01 04:40:09;;;;;;;;;;;29.50;99.90;;;;;;4209794;28;19935;-68
2022/10/01 04:42:14;;;;;;;;;;;29.40;99.90;;;;;;4192547;28;19928;-69
2022/10/01 04:44:21;;;;;;;;;;;29.50;99.90;;;;;;4192145;28;20558;-69
2022/10/01 04:46:27;;;;;;;;;;;29.30;99.90;;;;;;4209333;28;19951;-69
2022/10/01 04:48:33;;;;;;;;;;;29.30;99.90;;;;;;4209439;28;19988;-69
2022/10/01 04:50:37;;;;;;;;;;;29.30;99.90;;;;;;4191766;28;19932;-69
2022/10/01 04:52:42;;;;;;;;;;;29.40;99.90;;;;;;4209605;28;19949;-69
2022/10/01 04:54:47;;;;;;;;;;;29.40;99.90;;;;;;4191368;28;19933;-69
2022/10/01 04:56:57;;;;;;;;;;;29.50;99.90;;;;;;4206706;28;19955;-69
2022/10/01 04:59:02;;;;;;;;;;;29.70;99.90;;;;;;4209163;28;19928;-70
2022/10/01 05:01:07;;;;;;;;;;;29.80;99.90;;;;;;4190936;28;19934;-69
2022/10/01 05:03:14;;;;;;;;;;;29.90;99.90;;;;;;4192558;28;19962;-69
2022/10/01 05:05:33;;;;;;;;;;;29.90;99.90;;;;;;4190966;28;19956;-69
2022/10/01 05:07:41;;;;;;;;;;;29.90;99.90;;;;;;4205971;28;20244;-69
2022/10/01 05:09:46;;;;;;;;;;;29.80;99.90;;;;;;4209217;28;19932;-69
2022/10/01 05:11:50;;;;;;;;;;;29.90;99.90;;;;;;4208928;28;20348;-69
2022/10/01 05:13:56;;;;;;;;;;;29.90;99.90;;;;;;4201561;28;19931;-69
2022/10/01 05:16:02;;;;;;;;;;;29.90;99.90;;;;;;4197030;28;19932;-69
2022/10/01 05:18:08;;;;;;;;;;;30.00;99.90;;;;;;4204776;28;19932;-68
2022/10/01 05:20:16;;;;;;;;;;;30.00;99.90;;;;;;4185290;28;19942;-69
2022/10/01 05:22:22;;;;;;;;;;;30.10;99.90;;;;;;4206544;28;19950;-69
2022/10/01 05:24:29;;;;;;;;;;;30.20;99.90;;;;;;4195984;28;19931;-68
2022/10/01 05:26:36;;;;;;;;;;;30.20;99.90;;;;;;4206986;28;19928;-69
2022/10/01 05:28:43;;;;;;;;;;;30.30;99.90;;;;;;4191784;28;20334;-68
2022/10/01 05:30:48;;;;;;;;;;;30.30;99.90;;;;;;4220887;28;19932;-68
2022/10/01 05:32:53;;;;;;;;;;;30.40;99.90;;;;;;4214676;28;19985;-70
2022/10/01 05:34:57;;;;;;;;;;;30.40;99.90;;;;;;4207408;28;20010;-69
2022/10/01 05:37:05;;;;;;;;;;;30.40;99.90;;;;;;4197645;28;19928;-68
2022/10/01 05:39:10;;;;;;;;;;;30.50;99.90;;;;;;4206306;28;20019;-69
2022/10/01 05:41:18;;;;;;;;;;;30.50;99.90;;;;;;4222585;28;19965;-69
2022/10/01 05:43:27;;;;;;;;;;;30.40;99.90;;;;;;4191872;28;19981;-69
2022/10/01 05:45:32;;;;;;;;;;;30.30;99.90;;;;;;4210188;28;20419;-68
2022/10/01 05:47:43;;;;;;;;;;;30.20;99.90;;;;;;4191757;28;19935;-70
2022/10/01 05:49:48;;;;;;;;;;;30.20;99.90;;;;;;4206132;28;19939;-68
2022/10/01 05:51:53;;;;;;;;;;;30.20;99.90;;;;;;4208209;28;19932;-69
2022/10/01 05:54:04;;;;;;;;;;;30.20;99.90;;;;;;4189626;28;19979;-69
2022/10/01 05:56:12;;;;;;;;;;;30.20;99.90;;;;;;4205883;28;19928;-69
2022/10/01 05:58:16;;;;;;;;;;;30.10;99.90;;;;;;4207765;28;19928;-69
2022/10/01 06:00:21;;;;;;;;;;;30.10;99.90;;;;;;4207445;28;20417;-69
2022/10/01 06:02:30;;;;;;;;;;;30.10;99.90;;;;;;4205926;28;19963;-68
2022/10/01 06:04:43;;;;;;;;;;;30.10;99.90;;;;;;4207930;28;19935;-69
2022/10/01 06:06:52;;;;;;;;;;;30.00;99.90;;;;;;4206024;28;20031;-68
2022/10/01 06:08:58;;;;;;;;;;;30.00;99.90;;;;;;4190133;28;19946;-69
2022/10/01 06:11:09;;;;;;;;;;;30.00;99.90;;;;;;4207154;28;19928;-69
2022/10/01 06:13:16;;;;;;;;;;;29.90;99.90;;;;;;4210257;28;19934;-69
2022/10/01 06:15:33;;;;;;;;;;;29.90;99.90;;;;;;4190226;28;20026;-68
2022/10/01 06:17:43;;;;;;;;;;;29.90;99.90;;;;;;4207577;28;20382;-69
2022/10/01 06:19:50;;;;;;;;;;;29.90;99.90;;;;;;4207500;28;19986;-68
2022/10/01 06:21:57;;;;;;;;;;;29.90;99.90;;;;;;4210915;28;19981;-69
2022/10/01 06:24:05;;;;;;;;;;;30.00;99.90;;;;;;4193630;28;20341;-69
2022/10/01 06:26:10;;;;;;;;;;;30.00;99.90;;;;;;4213618;28;20382;-69
2022/10/01 06:28:15;;;;;;;;;;;30.00;99.90;;;;;;4195686;28;19928;-70
2022/10/01 06:30:20;;;;;;;;;;;30.10;99.90;;;;;;4211156;28;19931;-70
2022/10/01 06:32:27;;;;;;;;;;;30.10;99.90;;;;;;4193600;28;20640;-70
2022/10/01 06:34:36;;;;;;;;;;;30.10;99.90;;;;;;4202858;28;20022;-70
2022/10/01 06:36:41;;;;;;;;;;;30.10;99.90;;;;;;4209849;28;19928;-68
2022/10/01 06:38:49;;;;;;;;;;;30.10;99.90;;;;;;4209129;28;19928;-73
2022/10/01 06:40:54;;;;;;;;;;;30.10;99.90;;;;;;4211051;28;19959;-69
2022/10/01 06:42:58;;;;;;;;;;;30.10;99.90;;;;;;4211590;28;19928;-70
2022/10/01 06:45:02;;;;;;;;;;;30.10;99.90;;;;;;4211709;28;19930;-69
2022/10/01 06:47:12;;;;;;;;;;;30.10;99.90;;;;;;4210232;28;19928;-69
2022/10/01 06:49:19;;;;;;;;;;;30.10;99.90;;;;;;4211457;28;19935;-68
2022/10/01 06:52:47;;;;;;;;;;;30.10;99.90;;;;;;4211464;28;19928;-70
2022/10/01 06:53:47;;;;;;;;;;;30.10;99.90;;;;;;4190626;28;19935;-68
2022/10/01 06:55:52;;;;;;;;;;;30.00;99.90;;;;;;4211508;28;19970;-71
2022/10/01 06:57:57;;;;;;;;;;;30.10;99.90;;;;;;4211168;28;19955;-69
2022/10/01 07:00:02;;;;;;;;;;;30.10;99.90;;;;;;4193707;28;19971;-68
2022/10/01 07:02:18;;;;;;;;;;;30.10;99.90;;;;;;4192092;28;19928;-69
2022/10/01 07:04:36;;;;;;;;;;;30.10;99.90;;;;;;4194693;28;19936;-69
2022/10/01 07:06:41;;;;;;;;;;;30.00;99.90;;;;;;4193478;28;19928;-68
2022/10/01 07:08:49;;;;;;;;;;;30.10;99.90;;;;;;4209486;28;19966;-68
2022/10/01 07:10:58;;;;;;;;;;;30.20;99.90;;;;;;4194827;28;20026;-68
2022/10/01 07:13:07;;;;;;;;;;;30.20;99.90;;;;;;4194337;28;20294;-68
2022/10/01 07:15:14;;;;;;;;;;;30.30;99.90;;;;;;4211846;28;19928;-68
2022/10/01 07:17:21;;;;;;;;;;;30.40;99.90;;;;;;4211664;28;20370;-68
2022/10/01 07:19:26;;;;;;;;;;;30.50;99.90;;;;;;4209790;28;20420;-69
2022/10/01 07:21:31;;;;;;;;;;;30.50;99.90;;;;;;4218575;28;20011;-68
2022/10/01 07:23:36;;;;;;;;;;;30.50;99.90;;;;;;4227395;28;19961;-68
2022/10/01 07:25:40;;;;;;;;;;;30.50;99.90;;;;;;4228476;28;19928;-69
2022/10/01 07:27:46;;;;;;;;;;;30.40;99.90;;;;;;4200268;28;20341;-68
2022/10/01 07:29:50;;;;;;;;;;;30.30;99.90;;;;;;4211209;28;19928;-69
2022/10/01 07:31:58;;;;;;;;;;;30.10;99.90;;;;;;4189884;28;19974;-68
2022/10/01 07:34:03;;;;;;;;;;;30.00;99.90;;;;;;4224797;28;19976;-68
2022/10/01 07:36:08;;;;;;;;;;;29.80;99.90;;;;;;4210933;28;19932;-69
2022/10/01 07:38:13;;;;;;;;;;;29.80;99.90;;;;;;4193755;28;19928;-72
2022/10/01 07:40:18;;;;;;;;;;;29.70;99.90;;;;;;4211437;28;20023;-70
2022/10/01 07:42:22;;;;;;;;;;;29.60;99.90;;;;;;4209219;28;19928;-70
2022/10/01 07:44:28;;;;;;;;;;;29.50;99.90;;;;;;4187499;28;20014;-71
2022/10/01 07:46:33;;;;;;;;;;;29.40;99.90;;;;;;4203736;28;19928;-70
2022/10/01 07:48:41;;;;;;;;;;;29.20;99.90;;;;;;4193817;28;20331;-70
2022/10/01 07:50:46;;;;;;;;;;;28.90;99.90;;;;;;4211128;28;20027;-70
2022/10/01 07:52:58;;;;;;;;;;;29.00;99.90;;;;;;4179079;28;19928;-71
2022/10/01 07:55:04;;;;;;;;;;;29.00;99.90;;;;;;4210788;28;19967;-72
2022/10/01 07:57:10;;;;;;;;;;;29.20;99.90;;;;;;4218160;28;19927;-70
2022/10/01 07:59:14;;;;;;;;;;;29.30;99.90;;;;;;4205961;28;19951;-72
2022/10/01 08:01:21;;;;;;;;;;;29.30;99.90;;;;;;4192470;28;19928;-74
2022/10/01 08:03:25;;;;;;;;;;;29.20;99.90;;;;;;4209699;28;20022;-72
2022/10/01 08:05:30;;;;;;;;;;;29.20;99.90;;;;;;4210456;28;19932;-70
2022/10/01 08:07:35;;;;;;;;;;;29.10;99.90;;;;;;4212318;28;19928;-71
2022/10/01 08:09:40;;;;;;;;;;;29.10;99.90;;;;;;4226834;28;19942;-70
2022/10/01 08:11:44;;;;;;;;;;;28.90;99.90;;;;;;4226875;28;20290;-69
2022/10/01 08:13:48;;;;;;;;;;;28.90;99.90;;;;;;4227489;28;19928;-70
2022/10/01 08:15:53;;;;;;;;;;;28.70;99.90;;;;;;4209788;28;20034;-73
2022/10/01 08:18:00;;;;;;;;;;;28.60;99.90;;;;;;4227548;28;20373;-69
2022/10/01 08:20:15;;;;;;;;;;;28.30;99.90;;;;;;4210284;28;19932;-71
2022/10/01 08:22:39;;;;;;;;;;;28.30;99.90;;;;;;4181136;28;19963;-72
2022/10/01 08:24:44;;;;;;;;;;;28.20;99.90;;;;;;4210555;28;19955;-72
2022/10/01 08:26:54;;;;;;;;;;;28.30;99.90;;;;;;4192137;28;19932;-69
2022/10/01 08:29:00;;;;;;;;;;;28.30;99.90;;;;;;4210430;28;20019;-69
2022/10/01 08:31:11;;;;;;;;;;;28.40;99.90;;;;;;4210408;28;19924;-70
2022/10/01 08:33:16;;;;;;;;;;;28.50;99.90;;;;;;4210392;28;19931;-69
2022/10/01 08:35:28;;;;;;;;;;;28.40;99.90;;;;;;4209683;28;19934;-69
2022/10/01 08:37:32;;;;;;;;;;;28.50;99.90;;;;;;4202905;28;19927;-71
2022/10/01 08:39:37;;;;;;;;;;;28.50;99.90;;;;;;4181210;28;19932;-70
2022/10/01 08:41:58;;;;;;;;;;;28.50;99.90;;;;;;4188979;28;19928;-71
2022/10/01 08:44:13;;;;;;;;;;;28.50;99.90;;;;;;4188849;28;19932;-70
2022/10/01 08:46:27;;;;;;;;;;;28.40;99.90;;;;;;4213009;28;20731;-71
2022/10/01 08:48:44;;;;;;;;;;;28.30;99.90;;;;;;4227007;28;19927;-67
2022/10/01 08:51:03;;;;;;;;;;;28.40;99.90;;;;;;4226733;28;19932;-69
2022/10/01 08:53:28;;;;;;;;;;;28.40;99.90;;;;;;4200676;28;19989;-70
2022/10/01 08:55:36;;;;;;;;;;;28.40;99.90;;;;;;4191496;28;20034;-70
2022/10/01 08:57:45;;;;;;;;;;;28.30;99.90;;;;;;4207513;28;19928;-70
2022/10/01 08:59:49;;;;;;;;;;;28.00;99.90;;;;;;4190051;28;20481;-70
2022/10/01 09:01:55;;;;;;;;;;;27.90;99.90;;;;;;4209311;28;19928;-70
2022/10/01 09:03:59;;;;;;;;;;;28.00;99.90;;;;;;4207097;28;19977;-70
2022/10/01 09:06:15;;;;;;;;;;;28.10;99.90;;;;;;4209054;28;19980;-69
2022/10/01 09:08:23;;;;;;;;;;;28.20;99.90;;;;;;4207223;28;20669;-69
2022/10/01 09:10:40;;;;;;;;;;;28.20;99.90;;;;;;4209006;28;19928;-69
2022/10/01 09:12:57;;;;;;;;;;;28.20;99.90;;;;;;4206813;28;19935;-69
2022/10/01 09:15:08;;;;;;;;;;;28.30;99.90;;;;;;4191873;28;19995;-70
2022/10/01 09:17:15;;;;;;;;;;;28.40;99.90;;;;;;4209681;28;19928;-68
2022/10/01 09:19:22;;;;;;;;;;;28.40;99.90;;;;;;4207162;28;20122;-67
2022/10/01 09:21:39;;;;;;;;;;;28.50;99.90;;;;;;4208638;28;20026;-70
2022/10/01 09:23:46;;;;;;;;;;;28.40;99.90;;;;;;4209093;28;20450;-69
2022/10/01 09:25:59;;;;;;;;;;;28.40;99.90;;;;;;4190960;28;19932;-70
2022/10/01 09:28:16;;;;;;;;;;;28.50;99.90;;;;;;4209721;28;19928;-72
2022/10/01 09:30:25;;;;;;;;;;;28.50;99.90;;;;;;4174682;28;19989;-69
2022/10/01 09:32:35;;;;;;;;;;;28.50;99.90;;;;;;4191513;28;19928;-70
2022/10/01 09:34:40;;;;;;;;;;;28.50;99.90;;;;;;4190470;28;20800;-70
2022/10/01 09:37:04;;;;;;;;;;;28.50;99.90;;;;;;4192982;28;19935;-70
2022/10/01 09:39:21;;;;;;;;;;;28.50;99.90;;;;;;4210033;28;20049;-69
2022/10/01 09:41:31;;;;;;;;;;;28.50;99.90;;;;;;4209044;28;19935;-70
2022/10/01 09:43:40;;;;;;;;;;;28.40;99.90;;;;;;4206933;28;20035;-70
2022/10/01 09:45:46;;;;;;;;;;;28.50;99.90;;;;;;4191816;28;20042;-68
2022/10/01 09:47:52;;;;;;;;;;;28.50;99.90;;;;;;4209322;28;19951;-69
2022/10/01 09:50:12;;;;;;;;;;;28.50;99.90;;;;;;4173421;28;20009;-68
2022/10/01 09:52:25;;;;;;;;;;;28.50;99.90;;;;;;4155444;28;20077;-69
2022/10/01 09:54:36;;;;;;;;;;;28.50;99.90;;;;;;4173509;28;19928;-67
2022/10/01 09:57:12;;;;;;;;;;;28.60;99.90;;;;;;4154533;28;19929;-69
2022/10/01 09:59:19;;;;;;;;;;;28.60;99.90;;;;;;4172248;28;20511;-68
2022/10/01 10:01:43;;;;;;;;;;;28.50;99.90;;;;;;4156766;28;20473;-68
2022/10/01 10:03:55;;;;;;;;;;;28.60;99.90;;;;;;4170607;28;19936;-69
2022/10/01 10:05:59;;;;;;;;;;;28.60;99.90;;;;;;4173208;28;19932;-69
2022/10/01 10:08:11;;;;;;;;;;;28.60;99.90;;;;;;4172832;28;20023;-68
2022/10/01 10:10:18;;;;;;;;;;;28.60;99.90;;;;;;4159093;28;19960;-69
2022/10/01 10:12:28;;;;;;;;;;;28.60;99.90;;;;;;4158520;28;19936;-69
2022/10/01 10:14:36;;;;;;;;;;;28.60;99.90;;;;;;4160202;28;19999;-69
2022/10/01 10:16:45;;;;;;;;;;;28.60;99.90;;;;;;4160385;28;20016;-70
2022/10/01 10:18:52;;;;;;;;;;;28.70;99.90;;;;;;4157063;28;19929;-69
2022/10/01 10:20:58;;;;;;;;;;;28.70;99.90;;;;;;4183145;28;19929;-69
2022/10/01 10:23:10;;;;;;;;;;;28.70;99.90;;;;;;4185045;28;20391;-68
2022/10/01 10:25:19;;;;;;;;;;;28.70;99.90;;;;;;4160961;28;20032;-69
2022/10/01 10:27:28;;;;;;;;;;;28.70;99.90;;;;;;4179025;28;19936;-69
2022/10/01 10:29:35;;;;;;;;;;;28.70;99.90;;;;;;4178842;28;20587;-70
2022/10/01 10:31:42;;;;;;;;;;;28.70;99.90;;;;;;4194908;28;19929;-71
2022/10/01 10:33:56;;;;;;;;;;;28.70;99.90;;;;;;4212408;28;19947;-70
2022/10/01 10:36:10;;;;;;;;;;;28.70;99.90;;;;;;4195499;28;20015;-70
2022/10/01 10:38:18;;;;;;;;;;;28.60;99.90;;;;;;4193558;28;19981;-71
2022/10/01 10:40:24;;;;;;;;;;;28.50;99.90;;;;;;4211455;28;20046;-71
2022/10/01 10:42:33;;;;;;;;;;;28.50;99.90;;;;;;4200287;28;19952;-70
2022/10/01 10:44:38;;;;;;;;;;;28.50;99.90;;;;;;4212228;28;20520;-70
2022/10/01 10:46:44;;;;;;;;;;;28.40;99.90;;;;;;4206055;28;19967;-70
2022/10/01 10:48:50;;;;;;;;;;;28.40;99.90;;;;;;4211179;28;19927;-70
2022/10/01 10:50:58;;;;;;;;;;;28.40;99.90;;;;;;4195547;28;19928;-71
2022/10/01 10:53:15;;;;;;;;;;;28.40;99.90;;;;;;4182996;28;19928;-71
2022/10/01 10:55:29;;;;;;;;;;;28.40;99.90;;;;;;4192563;28;19929;-71
2022/10/01 10:57:36;;;;;;;;;;;28.40;99.90;;;;;;4226869;28;19946;-69
2022/10/01 10:59:40;;;;;;;;;;;28.40;99.90;;;;;;4175697;28;19964;-71
2022/10/01 11:01:44;;;;;;;;;;;28.30;99.90;;;;;;4211520;28;19989;-71
2022/10/01 11:03:52;;;;;;;;;;;28.40;99.90;;;;;;4206240;28;19982;-70
2022/10/01 11:06:08;;;;;;;;;;;28.40;99.90;;;;;;4177066;28;19964;-70
2022/10/01 11:08:14;;;;;;;;;;;28.40;99.90;;;;;;4197997;28;20453;-70
2022/10/01 11:10:40;;;;;;;;;;;28.40;99.90;;;;;;4183582;28;19979;-71
2022/10/01 11:12:57;;;;;;;;;;;28.30;99.90;;;;;;4194147;28;19946;-71
2022/10/01 11:15:06;;;;;;;;;;;28.40;99.90;;;;;;4204416;28;19928;-71
2022/10/01 11:17:13;;;;;;;;;;;28.30;99.90;;;;;;4184863;28;20629;-73
2022/10/01 11:19:21;;;;;;;;;;;28.30;99.90;;;;;;4178348;28;19928;-72
2022/10/01 11:21:37;;;;;;;;;;;28.30;99.90;;;;;;4193903;28;19929;-71
2022/10/01 11:23:51;;;;;;;;;;;28.30;99.90;;;;;;4212484;28;19950;-72
2022/10/01 11:26:05;;;;;;;;;;;28.30;99.90;;;;;;4211706;28;19932;-72
2022/10/01 11:28:21;;;;;;;;;;;28.30;99.90;;;;;;4209348;28;19924;-73
2022/10/01 11:30:25;;;;;;;;;;;28.30;99.90;;;;;;4213732;28;19979;-75
2022/10/01 11:32:36;;;;;;;;;;;28.30;99.90;;;;;;4214221;28;19970;-70
2022/10/01 11:34:47;;;;;;;;;;;28.30;99.90;;;;;;4203034;28;19932;-72
2022/10/01 11:36:51;;;;;;;;;;;28.30;99.90;;;;;;4190228;28;20072;-71
2022/10/01 11:39:00;;;;;;;;;;;28.30;99.90;;;;;;4213737;28;19928;-70
2022/10/01 11:41:24;;;;;;;;;;;28.30;99.90;;;;;;4196425;28;20366;-71
2022/10/01 11:43:32;;;;;;;;;;;28.30;99.90;;;;;;4215145;28;20271;-70
2022/10/01 11:45:39;;;;;;;;;;;28.30;99.90;;;;;;4174383;28;20342;-71
2022/10/01 11:47:45;;;;;;;;;;;28.30;99.90;;;;;;4189124;28;20324;-72
2022/10/01 11:49:58;;;;;;;;;;;28.20;99.90;;;;;;4190811;28;19935;-70
2022/10/01 11:52:06;;;;;;;;;;;28.20;99.90;;;;;;4184088;28;19939;-72
2022/10/01 11:54:11;;;;;;;;;;;28.20;99.90;;;;;;4209710;28;19967;-70
2022/10/01 12:01:04;;;;;;;;;;;28.20;99.90;;;;;;4194141;28;19928;-71
2022/10/01 12:03:12;;;;;;;;;;;28.20;99.90;;;;;;4210090;28;19928;-70
2022/10/01 12:05:17;;;;;;;;;;;28.20;99.90;;;;;;4178332;28;19929;-71
2022/10/01 12:07:25;;;;;;;;;;;28.20;99.90;;;;;;4211475;28;19942;-72
2022/10/01 12:09:34;;;;;;;;;;;28.20;99.90;;;;;;4195095;28;19925;-71
2022/10/01 12:11:49;;;;;;;;;;;28.10;99.90;;;;;;4212361;28;19932;-72
2022/10/01 12:13:59;;;;;;;;;;;28.10;99.90;;;;;;4192735;28;19978;-71
2022/10/01 12:16:09;;;;;;;;;;;28.10;99.90;;;;;;4185440;28;20383;-71
2022/10/01 12:18:26;;;;;;;;;;;28.00;99.90;;;;;;4196002;28;20679;-69
2022/10/01 12:20:33;;;;;;;;;;;28.00;99.90;;;;;;4196675;28;19928;-70
2022/10/01 12:22:37;;;;;;;;;;;28.00;99.90;;;;;;4193378;28;20396;-69
2022/10/01 12:24:42;;;;;;;;;;;28.00;99.90;;;;;;4199511;28;19936;-70
2022/10/01 12:26:55;;;;;;;;;;;28.00;99.90;;;;;;4192560;28;19966;-70
2022/10/01 12:29:08;;;;;;;;;;;27.90;99.90;;;;;;4206955;28;19928;-69
2022/10/01 12:31:13;;;;;;;;;;;27.80;99.90;;;;;;4189984;28;19968;-68
2022/10/01 12:33:26;;;;;;;;;;;27.70;99.90;;;;;;4210191;28;19981;-69